.
WxDataArchive / Data Records for 2011-11-25
2011-11-24 November 2011 2011-11-26

Data Records for Friday, 25 November 2011

Time	Temp	Chill	HIndex	Humid	Dewpt	 Wind 	HiWind	WindDir	Rain 	Barom 
-----	----	-----	------	-----	-----	------	------	-------	-----	----- 
00:00	40.6	40.6	40.6	93	38.7	2	7	248	0.00	30.168 
00:05	40.6	40.6	40.6	93	38.7	1	6	248	0.00	30.168 
00:10	40.8	40.8	40.8	93	38.9	1	6	248	0.00	30.168 
00:15	40.6	40.6	40.6	93	38.7	1	6	248	0.00	30.166 
00:20	40.6	40.6	40.6	92	38.5	1	3	248	0.00	30.166 
00:25	40.6	40.6	40.6	92	38.5	1	3	248	0.00	30.166 
00:30	40.6	40.6	40.6	92	38.5	1	3	248	0.00	30.165 
00:35	40.5	40.5	40.5	92	38.4	1	4	248	0.00	30.165 
00:40	40.5	40.5	40.5	92	38.4	1	4	248	0.00	30.165 
00:45	40.5	40.5	40.5	92	38.4	1	4	248	0.00	30.162 
00:50	40.5	40.5	40.5	92	38.4	1	4	248	0.00	30.162 
00:55	40.3	40.3	40.3	92	38.2	0	2	248	0.00	30.162 
01:00	40.3	40.3	40.3	92	38.2	0	3	248	0.00	30.164 
01:05	40.3	40.3	40.3	92	38.2	1	6	248	0.00	30.164 
01:10	40.3	40.3	40.3	92	38.2	1	3	248	0.00	30.164 
01:15	40.3	40.3	40.3	92	38.2	0	2	248	0.00	30.161 
01:20	40.3	40.3	40.3	92	38.2	1	5	248	0.00	30.161 
01:25	40.3	40.3	40.3	92	38.2	1	5	225	0.00	30.161 
01:30	40.3	40.3	40.3	92	38.2	1	4	225	0.00	30.160 
01:35	40.3	40.3	40.3	92	38.2	1	4	225	0.00	30.160 
01:40	40.3	40.3	40.3	92	38.2	1	5	248	0.00	30.160 
01:45	40.5	40.5	40.5	92	38.4	1	3	248	0.00	30.159 
01:50	40.3	40.3	40.3	92	38.2	0	3	248	0.00	30.159 
01:55	40.5	40.5	40.5	92	38.4	1	4	248	0.00	30.159 
02:00	40.5	40.5	40.5	92	38.4	1	4	248	0.00	30.157 
02:05	40.5	40.5	40.5	92	38.4	1	4	248	0.00	30.157 
02:10	40.5	40.5	40.5	92	38.4	1	5	248	0.00	30.157 
02:15	40.5	40.5	40.5	92	38.4	0	4	248	0.00	30.157 
02:20	40.5	40.5	40.5	92	38.4	1	5	248	0.00	30.157 
02:25	40.5	40.5	40.5	92	38.4	1	4	248	0.00	30.157 
02:30	40.5	40.5	40.5	92	38.4	0	2	248	0.00	30.158 
02:35	40.5	40.5	40.5	92	38.4	1	3	248	0.00	30.158 
02:40	40.5	40.5	40.5	92	38.4	1	3	248	0.00	30.158 
02:45	40.6	40.6	40.6	92	38.5	1	5	248	0.00	30.161 
02:50	40.6	40.6	40.6	92	38.5	1	4	248	0.00	30.161 
02:55	40.6	40.6	40.6	92	38.5	1	4	248	0.00	30.161 
03:00	40.6	40.6	40.6	92	38.5	1	3	248	0.00	30.159 
03:05	40.6	40.6	40.6	92	38.5	1	4	225	0.00	30.159 
03:10	40.6	40.6	40.6	92	38.5	1	5	248	0.00	30.159 
03:15	40.6	40.6	40.6	92	38.5	1	4	248	0.00	30.154 
03:20	40.6	40.6	40.6	92	38.5	1	3	248	0.00	30.154 
03:25	40.6	40.6	40.6	92	38.5	1	3	225	0.00	30.154 
03:30	40.8	40.8	40.8	92	38.7	1	4	248	0.00	30.149 
03:35	40.8	40.8	40.8	92	38.7	1	6	225	0.00	30.149 
03:40	40.8	40.8	40.8	92	38.7	1	4	248	0.00	30.149 
03:45	40.9	40.9	40.9	91	38.5	1	3	248	0.00	30.148 
03:50	40.9	40.9	40.9	91	38.5	1	4	248	0.00	30.148 
03:55	40.9	40.9	40.9	91	38.5	1	4	248	0.00	30.148 
04:00	40.9	40.9	40.9	91	38.5	1	3	248	0.00	30.145 
04:05	40.9	40.9	40.9	91	38.5	1	4	248	0.00	30.145 
04:10	40.8	40.8	40.8	91	38.4	0	2	248	0.00	30.145 
04:15	40.6	40.6	40.6	91	38.2	0	1	248	0.00	30.145 
04:20	40.6	40.6	40.6	91	38.2	0	3	248	0.00	30.145 
04:25	40.6	40.6	40.6	91	38.2	0	3	248	0.00	30.145 
04:30	40.8	40.8	40.8	91	38.4	1	4	248	0.00	30.142 
04:35	40.8	40.8	40.8	91	38.4	1	4	248	0.00	30.142 
04:40	40.9	40.9	40.9	91	38.5	1	4	248	0.00	30.142 
04:45	41.1	41.1	41.1	91	38.7	1	3	90	0.00	30.142 
04:50	41.1	41.1	41.1	91	38.7	1	5	248	0.00	30.142 
04:55	41.1	41.1	41.1	91	38.7	0	3	248	0.00	30.142 
05:00	41.2	41.2	41.2	91	38.8	1	5	248	0.00	30.139 
05:05	41.2	41.2	41.2	91	38.8	1	3	248	0.00	30.139 
05:10	41.2	41.2	41.2	91	38.8	1	5	248	0.00	30.139 
05:15	41.2	41.2	41.2	91	38.8	0	3	248	0.00	30.137 
05:20	41.2	41.2	41.2	91	38.8	1	4	248	0.00	30.137 
05:25	41.2	41.2	41.2	91	38.8	1	3	248	0.00	30.137 
05:30	41.2	41.2	41.2	91	38.8	0	2	248	0.00	30.140 
05:35	41.1	41.1	41.1	90	38.4	0	2	248	0.00	30.140 
05:40	41.1	41.1	41.1	90	38.4	1	3	248	0.00	30.140 
05:45	41.1	41.1	41.1	90	38.4	1	4	225	0.00	30.136 
05:50	41.2	41.2	41.2	91	38.8	0	2	270	0.00	30.136 
05:55	41.2	41.2	41.2	91	38.8	1	3	270	0.00	30.136 
06:00	41.3	41.3	41.3	91	38.9	1	4	248	0.00	30.135 
06:05	41.3	41.3	41.3	90	38.6	0	2	248	0.00	30.135 
06:10	41.5	41.5	41.5	91	39.1	1	3	248	0.00	30.135 
06:15	41.3	41.3	41.3	90	38.6	0	2	248	0.00	30.142 
06:20	41.3	41.3	41.3	90	38.6	0	3	248	0.00	30.142 
06:25	41.3	41.3	41.3	90	38.6	0	4	292	0.00	30.142 
06:30	41.3	41.3	41.3	90	38.6	0	3	248	0.00	30.137 
06:35	41.3	41.3	41.3	90	38.6	0	2	248	0.00	30.137 
06:40	41.2	41.2	41.2	90	38.5	0	3	225	0.01	30.137 
06:45	41.2	41.2	41.2	90	38.5	0	4	225	0.00	30.137 
06:50	41.1	41.1	41.1	90	38.4	0	3	225	0.00	30.137 
06:55	41.1	41.1	41.1	90	38.4	1	4	225	0.00	30.137 
07:00	41.2	41.2	41.2	90	38.5	1	3	248	0.00	30.139 
07:05	41.2	41.2	41.2	90	38.5	0	3	248	0.00	30.139 
07:10	41.2	41.2	41.2	90	38.5	0	3	248	0.00	30.139 
07:15	41.3	41.3	41.3	90	38.6	1	4	248	0.00	30.139 
07:20	41.3	41.3	41.3	90	38.6	0	3	248	0.00	30.139 
07:25	41.3	41.3	41.3	90	38.6	1	3	248	0.00	30.139 
07:30	41.5	41.5	41.5	90	38.8	1	5	248	0.00	30.133 
07:35	41.6	41.6	41.6	90	38.9	1	5	248	0.00	30.133 
07:40	41.8	41.8	41.8	90	39.1	1	5	248	0.00	30.133 
07:45	41.9	41.9	41.9	90	39.2	1	6	248	0.00	30.142 
07:50	41.9	41.9	41.9	89	38.9	1	6	248	0.00	30.142 
07:55	42.1	42.1	42.1	89	39.1	1	4	248	0.00	30.142 
08:00	42.2	42.2	42.2	89	39.2	0	3	248	0.00	30.139 
08:05	42.2	42.2	42.2	89	39.2	1	5	248	0.00	30.139 
08:10	42.3	42.3	42.3	88	39.0	1	4	248	0.00	30.139 
08:15	42.6	42.6	42.6	88	39.3	1	5	248	0.00	30.133 
08:20	42.9	42.9	42.9	88	39.6	1	5	270	0.00	30.133 
08:25	43.1	43.1	43.1	87	39.5	1	5	270	0.00	30.133 
08:30	43.3	43.3	43.3	87	39.7	2	5	248	0.00	30.129 
08:35	43.6	43.6	43.6	86	39.7	1	4	270	0.00	30.129 
08:40	43.9	43.9	43.9	86	40.0	2	7	248	0.00	30.129 
08:45	44.2	44.2	44.2	85	40.0	2	6	248	0.00	30.124 
08:50	44.5	44.5	44.5	84	40.0	2	7	292	0.00	30.124 
08:55	44.8	44.8	44.8	84	40.3	2	7	248	0.00	30.124 
09:00	45.1	45.1	45.1	83	40.3	1	6	248	0.00	30.121 
09:05	45.2	45.2	45.2	83	40.3	2	7	248	0.00	30.121 
09:10	45.7	45.7	45.7	82	40.5	2	5	248	0.00	30.121 
09:15	46.1	46.1	46.1	81	40.6	1	4	248	0.00	30.122 
09:20	46.4	46.4	46.4	80	40.6	2	6	248	0.00	30.122 
09:25	46.8	46.8	46.8	79	40.6	2	6	270	0.00	30.122 
09:30	47.0	47.0	47.0	78	40.5	2	6	248	0.00	30.125 
09:35	47.3	47.3	47.3	77	40.5	3	6	248	0.00	30.125 
09:40	47.6	47.6	47.6	77	40.8	3	7	248	0.00	30.125 
09:45	47.7	47.7	47.7	77	40.8	2	7	248	0.00	30.123 
09:50	48.0	48.0	48.0	76	40.8	3	9	248	0.00	30.123 
09:55	48.3	48.3	48.3	76	41.1	2	6	248	0.00	30.123 
10:00	48.5	48.5	48.5	76	41.3	2	5	248	0.00	30.111 
10:05	48.8	48.8	48.8	74	40.9	3	9	248	0.00	30.111 
10:10	49.1	49.1	49.1	74	41.2	3	8	248	0.00	30.111 
10:15	49.4	49.4	49.4	73	41.1	3	9	225	0.00	30.106 
10:20	49.6	49.6	49.6	73	41.3	2	7	248	0.00	30.106 
10:25	49.9	49.9	49.9	73	41.6	1	4	248	0.00	30.106 
10:30	50.2	50.2	50.2	72	41.5	2	5	248	0.00	30.103 
10:35	50.4	50.4	50.4	70	41.0	3	9	248	0.00	30.103 
10:40	50.7	50.7	50.7	71	41.6	2	6	225	0.00	30.103 
10:45	51.0	51.0	51.0	70	41.6	2	5	248	0.00	30.099 
10:50	51.3	51.3	51.3	69	41.5	2	9	248	0.00	30.099 
10:55	51.7	51.7	51.7	69	41.9	3	6	248	0.00	30.099 
11:00	51.9	51.9	51.9	67	41.3	3	8	248	0.00	30.095 
11:05	52.2	52.2	52.2	67	41.6	3	9	270	0.00	30.095 
11:10	52.5	52.5	52.5	66	41.5	3	8	248	0.00	30.095 
11:15	52.8	52.8	52.8	66	41.8	1	4	248	0.00	30.088 
11:20	53.2	53.2	53.2	65	41.7	3	7	248	0.00	30.088 
11:25	53.3	53.3	53.3	64	41.4	4	10	248	0.00	30.088 
11:30	53.6	53.6	53.6	63	41.3	5	14	248	0.00	30.075 
11:35	53.8	53.8	53.8	62	41.1	4	11	248	0.00	30.075 
11:40	54.1	54.1	54.1	62	41.4	4	10	248	0.00	30.075 
11:45	54.2	54.2	54.2	61	41.0	4	9	248	0.00	30.073 
11:50	54.5	54.5	54.5	62	41.7	3	10	248	0.00	30.073 
11:55	54.8	54.8	54.8	59	40.7	4	13	270	0.00	30.073 
12:00	55.0	55.0	55.0	59	40.9	4	10	248	0.00	30.058 
12:05	55.3	55.3	55.3	59	41.2	4	10	248	0.00	30.058 
12:10	55.6	55.6	55.6	59	41.5	3	10	248	0.00	30.058 
12:15	55.9	55.9	55.9	58	41.3	3	6	248	0.00	30.055 
12:20	56.2	56.2	56.2	58	41.6	3	9	270	0.00	30.055 
12:25	56.5	56.5	56.5	56	41.0	4	10	248	0.00	30.055 
12:30	56.6	56.6	56.6	56	41.1	3	13	270	0.00	30.045 
12:35	56.7	56.7	56.7	57	41.6	3	7	248	0.00	30.045 
12:40	57.2	57.2	57.2	57	42.1	2	6	248	0.00	30.045 
12:45	57.3	57.3	57.3	55	41.3	4	8	270	0.00	30.038 
12:50	57.3	57.3	57.3	55	41.3	4	9	248	0.00	30.038 
12:55	57.5	57.5	57.5	55	41.5	3	11	248	0.00	30.038 
13:00	57.5	57.5	57.5	55	41.5	3	7	248	0.00	30.026 
13:05	57.6	57.6	57.6	56	42.0	2	6	248	0.00	30.026 
13:10	58.0	58.0	58.0	54	41.4	5	14	248	0.00	30.026 
13:15	58.0	58.0	58.0	54	41.4	4	9	248	0.00	30.023 
13:20	58.1	58.1	58.1	54	41.5	3	11	248	0.00	30.023 
13:25	58.3	58.3	58.3	53	41.2	4	9	248	0.00	30.023 
13:30	58.3	58.3	58.3	54	41.7	4	10	248	0.00	30.020 
13:35	58.4	58.4	58.4	53	41.3	3	6	248	0.00	30.020 
13:40	58.4	58.4	58.4	52	40.8	4	9	248	0.00	30.020 
13:45	58.6	58.6	58.6	52	41.0	5	12	248	0.00	30.019 
13:50	58.9	58.9	58.9	52	41.3	3	10	270	0.00	30.019 
13:55	58.9	58.9	58.9	50	40.3	5	13	248	0.00	30.019 
14:00	58.9	58.9	58.9	52	41.3	3	10	248	0.00	30.016 
14:05	59.0	59.0	59.0	51	40.9	3	7	248	0.00	30.016 
14:10	59.0	59.0	59.0	50	40.4	6	14	270	0.00	30.016 
14:15	58.9	58.9	58.9	51	40.8	4	13	248	0.00	30.016 
14:20	58.9	58.9	58.9	51	40.8	3	11	248	0.00	30.016 
14:25	59.0	59.0	59.0	50	40.4	4	11	248	0.00	30.016 
14:30	59.2	59.2	59.2	50	40.6	4	10	248	0.00	30.005 
14:35	59.2	59.2	59.2	51	41.1	3	7	248	0.00	30.005 
14:40	59.2	59.2	59.2	51	41.1	4	12	248	0.00	30.005 
14:45	59.0	59.0	59.0	51	40.9	3	11	248	0.00	30.005 
14:50	59.0	59.0	59.0	51	40.9	3	6	248	0.00	30.005 
14:55	59.0	59.0	59.0	51	40.9	3	11	248	0.00	30.005 
15:00	59.0	59.0	59.0	51	40.9	4	12	248	0.00	29.997 
15:05	58.9	58.9	58.9	52	41.3	3	11	225	0.00	29.997 
15:10	59.0	59.0	59.0	52	41.4	2	6	270	0.00	29.997 
15:15	59.0	59.0	59.0	51	40.9	4	8	225	0.00	29.994 
15:20	59.2	59.2	59.2	51	41.1	3	9	248	0.00	29.994 
15:25	59.0	59.0	59.0	51	40.9	4	10	270	0.00	29.994 
15:30	59.0	59.0	59.0	51	40.9	4	9	248	0.00	30.003 
15:35	58.9	58.9	58.9	52	41.3	3	9	248	0.00	30.003 
15:40	58.7	58.7	58.7	53	41.6	2	6	248	0.00	30.003 
15:45	58.3	58.3	58.3	53	41.2	3	7	248	0.00	30.006 
15:50	58.0	58.0	58.0	54	41.4	2	10	248	0.00	30.006 
15:55	57.8	57.8	57.8	55	41.7	1	3	248	0.00	30.006 
16:00	58.0	58.0	58.0	54	41.4	2	6	248	0.00	30.006 
16:05	58.0	58.0	58.0	55	41.9	1	3	248	0.00	30.006 
16:10	58.1	58.1	58.1	54	41.5	2	4	248	0.00	30.006 
16:15	58.0	58.0	58.0	54	41.4	1	6	248	0.00	30.008 
16:20	57.8	57.8	57.8	54	41.3	2	6	248	0.00	30.008 
16:25	57.6	57.6	57.6	54	41.1	2	5	248	0.00	30.008 
16:30	57.6	57.6	57.6	53	40.6	2	11	248	0.00	30.004 
16:35	57.6	57.6	57.6	53	40.6	2	6	248	0.00	30.004 
16:40	57.5	57.5	57.5	53	40.5	1	5	248	0.00	30.004 
16:45	57.3	57.3	57.3	54	40.8	1	5	248	0.00	30.007 
16:50	57.0	57.0	57.0	54	40.5	1	4	248	0.00	30.007 
16:55	56.9	56.9	56.9	54	40.4	1	5	248	0.00	30.007 
17:00	56.6	56.6	56.6	55	40.6	1	3	248	0.00	30.002 
17:05	56.2	56.2	56.2	55	40.2	1	5	248	0.00	30.002 
17:10	56.0	56.0	56.0	56	40.5	1	3	248	0.00	30.002 
17:15	55.9	55.9	55.9	56	40.4	1	6	248	0.00	30.004 
17:20	55.6	55.6	55.6	57	40.6	1	2	248	0.00	30.004 
17:25	55.3	55.3	55.3	57	40.3	0	1	248	0.00	30.004 
17:30	55.0	55.0	55.0	58	40.5	0	3	248	0.00	30.003 
17:35	54.5	54.5	54.5	59	40.5	0	0	---	0.00	30.003 
17:40	54.2	54.2	54.2	60	40.6	0	1	248	0.00	30.003 
17:45	53.8	53.8	53.8	62	41.1	0	2	248	0.00	30.003 
17:50	53.6	53.6	53.6	63	41.3	0	1	248	0.00	30.003 
17:55	53.3	53.3	53.3	64	41.4	0	1	248	0.00	30.003 
18:00	53.1	53.1	53.1	64	41.2	0	1	248	0.00	30.002 
18:05	52.9	52.9	52.9	65	41.5	0	1	248	0.00	30.002 
18:10	52.8	52.8	52.8	65	41.4	0	3	248	0.00	30.002 
18:15	52.8	52.8	52.8	65	41.4	0	2	248	0.00	30.002 
18:20	52.6	52.6	52.6	65	41.2	0	1	248	0.00	30.002 
18:25	52.5	52.5	52.5	65	41.1	0	1	248	0.00	30.002 
18:30	52.5	52.5	52.5	65	41.1	1	3	248	0.00	30.005 
18:35	52.5	52.5	52.5	65	41.1	0	4	248	0.00	30.005 
18:40	52.6	52.6	52.6	65	41.2	1	4	22	0.00	30.005 
18:45	52.8	52.8	52.8	65	41.4	1	4	248	0.00	30.004 
18:50	52.8	52.8	52.8	65	41.4	1	6	248	0.00	30.004 
18:55	53.1	53.1	53.1	64	41.2	1	5	270	0.00	30.004 
19:00	53.1	53.1	53.1	64	41.2	1	4	248	0.00	30.002 
19:05	53.2	53.2	53.2	64	41.3	1	5	248	0.00	30.002 
19:10	53.2	53.2	53.2	63	40.9	1	4	225	0.00	30.002 
19:15	53.1	53.1	53.1	64	41.2	1	3	270	0.00	29.999 
19:20	53.1	53.1	53.1	63	40.8	1	3	270	0.00	29.999 
19:25	53.1	53.1	53.1	63	40.8	1	3	270	0.00	29.999 
19:30	53.1	53.1	53.1	63	40.8	1	4	270	0.00	30.006 
19:35	53.1	53.1	53.1	63	40.8	1	4	248	0.00	30.006 
19:40	53.2	53.2	53.2	63	40.9	1	4	248	0.00	30.006 
19:45	53.2	53.2	53.2	62	40.5	1	5	270	0.00	30.010 
19:50	53.3	53.3	53.3	62	40.6	2	5	270	0.00	30.010 
19:55	53.5	53.5	53.5	62	40.8	2	6	248	0.00	30.010 
20:00	53.5	53.5	53.5	61	40.4	2	5	248	0.00	30.001 
20:05	53.5	53.5	53.5	62	40.8	1	4	248	0.00	30.001 
20:10	53.3	53.3	53.3	62	40.6	1	7	248	0.00	30.001 
20:15	53.2	53.2	53.2	62	40.5	1	5	248	0.00	29.996 
20:20	53.2	53.2	53.2	62	40.5	1	4	225	0.00	29.996 
20:25	53.1	53.1	53.1	62	40.4	1	9	248	0.00	29.996 
20:30	53.1	53.1	53.1	62	40.4	1	4	248	0.00	30.000 
20:35	52.9	52.9	52.9	62	40.2	1	4	270	0.00	30.000 
20:40	52.8	52.8	52.8	62	40.1	1	6	225	0.00	30.000 
20:45	52.8	52.8	52.8	62	40.1	1	4	248	0.00	30.004 
20:50	52.8	52.8	52.8	62	40.1	1	4	248	0.00	30.004 
20:55	52.8	52.8	52.8	62	40.1	1	4	270	0.00	30.004 
21:00	52.8	52.8	52.8	62	40.1	1	4	248	0.00	30.006 
21:05	52.6	52.6	52.6	62	40.0	1	4	248	0.00	30.006 
21:10	52.6	52.6	52.6	61	39.5	1	5	248	0.00	30.006 
21:15	52.8	52.8	52.8	61	39.7	1	4	270	0.00	30.006 
21:20	52.8	52.8	52.8	61	39.7	1	5	248	0.00	30.006 
21:25	52.8	52.8	52.8	61	39.7	1	4	248	0.00	30.006 
21:30	52.8	52.8	52.8	60	39.3	1	4	270	0.00	30.003 
21:35	52.8	52.8	52.8	61	39.7	0	2	270	0.00	30.003 
21:40	52.6	52.6	52.6	61	39.5	1	4	270	0.00	30.003 
21:45	52.6	52.6	52.6	60	39.1	1	3	248	0.00	30.008 
21:50	52.6	52.6	52.6	60	39.1	1	5	248	0.00	30.008 
21:55	52.8	52.8	52.8	60	39.3	1	5	248	0.00	30.008 
22:00	52.8	52.8	52.8	60	39.3	0	2	248	0.00	30.008 
22:05	52.6	52.6	52.6	60	39.1	0	4	248	0.00	30.008 
22:10	52.5	52.5	52.5	60	39.0	1	5	248	0.00	30.008 
22:15	52.5	52.5	52.5	60	39.0	1	4	248	0.00	30.012 
22:20	52.3	52.3	52.3	61	39.3	1	3	248	0.00	30.012 
22:25	52.2	52.2	52.2	61	39.2	0	2	248	0.00	30.012 
22:30	52.2	52.2	52.2	61	39.2	0	3	248	0.00	30.018 
22:35	51.9	51.9	51.9	62	39.3	0	2	248	0.00	30.018 
22:40	51.7	51.7	51.7	62	39.1	0	2	248	0.00	30.018 
22:45	51.6	51.6	51.6	62	39.0	0	3	292	0.00	30.016 
22:50	51.6	51.6	51.6	62	39.0	1	3	248	0.00	30.016 
22:55	51.4	51.4	51.4	62	38.8	0	2	248	0.00	30.016 
23:00	51.4	51.4	51.4	62	38.8	1	4	248	0.00	30.017 
23:05	51.4	51.4	51.4	62	38.8	1	3	248	0.00	30.017 
23:10	51.4	51.4	51.4	62	38.8	1	4	248	0.00	30.017 
23:15	51.4	51.4	51.4	62	38.8	1	4	248	0.00	30.009 
23:20	51.6	51.6	51.6	61	38.6	1	3	248	0.00	30.009 
23:25	51.6	51.6	51.6	61	38.6	1	4	270	0.00	30.009 
23:30	51.6	51.6	51.6	61	38.6	1	6	248	0.00	30.010 
23:35	51.6	51.6	51.6	61	38.6	1	3	248	0.00	30.010 
23:40	51.7	51.7	51.7	60	38.3	1	4	248	0.00	30.010 
23:45	51.9	51.9	51.9	60	38.5	1	4	248	0.00	30.006 
23:50	51.9	51.9	51.9	60	38.5	1	4	270	0.00	30.006 
23:55	52.0	52.0	52.0	59	38.1	1	5	248	0.00	30.006 

CoCoRaHS
IN-AL-39
A2 Web Hosting
Creative Commons License
GoDaddy
search engine by freefind advanced

loaded 2018-11-15 04:07:46 • last modified 2010-11-18 10:43:29
Privacy PolicyDisclaimer
• wx.awcolley.com is powered by PmWiki v.2002016 •
• all content (unless otherwise noted) © 2018 A W Colley